createdAt,value
2018-07-23T00:00:07.721Z,23.17
2018-07-23T00:02:36.834Z,22.27
2018-07-23T00:05:06.006Z,22.50
2018-07-23T00:07:35.144Z,23.00
2018-07-23T00:10:04.312Z,24.27
2018-07-23T00:12:33.551Z,24.73
2018-07-23T00:15:02.648Z,22.40
2018-07-23T00:17:31.769Z,27.30
2018-07-23T00:20:00.967Z,27.80
2018-07-23T00:22:30.129Z,27.40
2018-07-23T00:24:59.301Z,29.27
2018-07-23T00:27:28.434Z,30.10
2018-07-23T00:29:57.583Z,30.77
2018-07-23T00:32:26.729Z,28.50
2018-07-23T00:34:55.922Z,31.60
2018-07-23T00:37:25.083Z,30.67
2018-07-23T00:39:54.238Z,31.33
2018-07-23T00:42:23.412Z,31.40
2018-07-23T00:44:52.557Z,33.27
2018-07-23T00:47:21.717Z,33.70
2018-07-23T00:49:50.964Z,34.50
2018-07-23T00:52:20.162Z,34.93
2018-07-23T00:54:49.297Z,34.27
2018-07-23T00:57:18.653Z,34.07
2018-07-23T00:59:47.800Z,34.17
2018-07-23T01:02:16.999Z,35.13
2018-07-23T01:04:46.126Z,37.90
2018-07-23T01:07:15.298Z,38.53
2018-07-23T01:09:44.418Z,38.67
2018-07-23T01:12:18.545Z,40.63
2018-07-23T01:14:47.706Z,43.00
2018-07-23T01:17:16.842Z,42.50
2018-07-23T01:19:45.925Z,36.60
2018-07-23T01:22:15.089Z,26.33
2018-07-23T01:24:44.217Z,26.77
2018-07-23T01:27:13.394Z,26.73
2018-07-23T01:29:42.521Z,31.17
2018-07-23T01:32:11.770Z,29.40
2018-07-23T01:34:40.904Z,30.23
2018-07-23T01:37:12.974Z,24.03
2018-07-23T01:39:42.165Z,23.53
2018-07-23T01:42:11.488Z,24.10
2018-07-23T01:44:40.664Z,20.87
2018-07-23T01:47:10.728Z,19.07
2018-07-23T01:49:39.877Z,26.13
2018-07-23T01:52:09.028Z,24.03
2018-07-23T01:54:38.159Z,23.37
2018-07-23T01:57:07.313Z,22.67
2018-07-23T01:59:36.503Z,24.77
2018-07-23T02:02:05.596Z,23.50
2018-07-23T02:04:38.974Z,25.77
2018-07-23T02:07:08.505Z,24.30
2018-07-23T02:09:37.645Z,26.93
2018-07-23T02:12:06.862Z,27.60
2018-07-23T02:14:35.985Z,26.23
2018-07-23T02:17:05.301Z,26.97
2018-07-23T02:19:34.437Z,28.27
2018-07-23T02:22:03.608Z,28.97
2018-07-23T02:24:32.749Z,28.00
2018-07-23T02:27:01.866Z,29.03
2018-07-23T02:29:31.035Z,30.73
2018-07-23T02:32:00.178Z,30.30
2018-07-23T02:34:29.301Z,29.50
2018-07-23T02:36:58.429Z,29.27
2018-07-23T02:39:27.691Z,28.23
2018-07-23T02:41:56.825Z,28.27
2018-07-23T02:44:26.006Z,27.83
2018-07-23T02:46:55.166Z,27.17
2018-07-23T02:49:24.701Z,28.80
2018-07-23T02:51:53.913Z,29.30
2018-07-23T02:54:23.100Z,28.87
2018-07-23T02:56:52.196Z,26.33
2018-07-23T02:59:21.363Z,27.63
2018-07-23T03:01:50.516Z,28.23
2018-07-23T03:04:19.643Z,29.70
2018-07-23T03:06:48.770Z,32.07
2018-07-23T03:09:17.918Z,33.10
2018-07-23T03:11:47.077Z,34.80
2018-07-23T03:14:16.258Z,32.40
2018-07-23T03:16:45.467Z,32.00
2018-07-23T03:19:14.616Z,31.80
2018-07-23T03:21:43.878Z,33.03
2018-07-23T03:24:12.979Z,32.57
2018-07-23T03:26:42.149Z,32.23
2018-07-23T03:29:11.265Z,32.30
2018-07-23T03:31:40.458Z,33.27
2018-07-23T03:34:09.572Z,29.07
2018-07-23T03:36:38.737Z,31.33
2018-07-23T03:39:09.356Z,31.57
2018-07-23T03:41:38.625Z,31.70
2018-07-23T03:44:07.943Z,31.27
2018-07-23T03:46:37.135Z,30.70
2018-07-23T03:49:06.623Z,32.30
2018-07-23T03:51:35.824Z,31.83
2018-07-23T03:54:05.022Z,32.27
2018-07-23T03:56:34.276Z,31.97
2018-07-23T03:59:03.440Z,32.23
2018-07-23T04:01:32.577Z,30.60
2018-07-23T04:04:01.760Z,32.63
2018-07-23T04:06:30.887Z,32.53
2018-07-23T04:09:00.054Z,34.00
2018-07-23T04:11:29.920Z,32.13
2018-07-23T04:13:59.031Z,34.73
2018-07-23T04:16:29.175Z,33.70
2018-07-23T04:18:58.370Z,33.73
2018-07-23T04:21:27.940Z,34.40
2018-07-23T04:23:57.134Z,33.40
2018-07-23T04:26:26.329Z,34.53
2018-07-23T04:28:56.664Z,34.10
2018-07-23T04:31:25.903Z,35.13
2018-07-23T04:33:55.055Z,32.60
2018-07-23T04:36:24.276Z,34.23
2018-07-23T04:38:54.056Z,34.60
2018-07-23T04:41:23.233Z,35.83
2018-07-23T04:43:52.934Z,36.60
2018-07-23T04:46:22.135Z,36.17
2018-07-23T04:48:51.322Z,32.33
2018-07-23T04:51:20.516Z,33.23
2018-07-23T04:53:49.641Z,33.00
2018-07-23T04:56:18.865Z,34.47
2018-07-23T04:58:48.061Z,33.37
2018-07-23T05:01:17.305Z,33.60
2018-07-23T05:03:46.446Z,33.97
2018-07-23T05:06:16.312Z,33.57
2018-07-23T05:08:45.520Z,32.63
2018-07-23T05:11:14.665Z,31.20
2018-07-23T05:13:43.865Z,30.90
2018-07-23T05:16:13.029Z,32.73
2018-07-23T05:18:42.271Z,33.23
2018-07-23T05:21:12.191Z,35.40
2018-07-23T05:23:41.483Z,32.70
2018-07-23T05:26:10.692Z,33.43
2018-07-23T05:28:39.845Z,32.97
2018-07-23T05:31:08.992Z,32.80
2018-07-23T05:33:38.135Z,34.20
2018-07-23T05:36:07.456Z,31.47
2018-07-23T05:38:36.681Z,32.93
2018-07-23T05:41:06.380Z,36.00
2018-07-23T05:43:35.550Z,32.43
2018-07-23T05:46:04.807Z,38.97
2018-07-23T05:48:34.085Z,32.47
2018-07-23T05:51:04.225Z,32.27
2018-07-23T05:53:34.773Z,35.63
2018-07-23T05:56:04.237Z,34.07
2018-07-23T05:58:35.061Z,32.77
2018-07-23T06:01:04.282Z,32.37
2018-07-23T06:03:34.801Z,34.70
2018-07-23T06:06:03.993Z,34.40
2018-07-23T06:08:33.194Z,33.67
2018-07-23T06:11:03.339Z,29.07
2018-07-23T06:13:32.549Z,30.53
2018-07-23T06:16:01.691Z,30.27
2018-07-23T06:18:31.040Z,32.40
2018-07-23T06:21:01.488Z,35.57
2018-07-23T06:23:31.350Z,32.73
2018-07-23T06:26:00.612Z,34.67
2018-07-23T06:28:29.999Z,34.17
2018-07-23T06:30:59.281Z,33.67
2018-07-23T06:33:29.309Z,34.47
2018-07-23T06:35:58.477Z,34.03
2018-07-23T06:38:27.667Z,31.37
2018-07-23T06:40:57.520Z,31.80
2018-07-23T06:43:27.412Z,32.40
2018-07-23T06:45:56.837Z,31.60
2018-07-23T06:48:26.082Z,31.37
2018-07-23T06:50:55.368Z,36.83
2018-07-23T06:53:24.508Z,31.97
2018-07-23T06:55:53.678Z,34.27
2018-07-23T06:58:22.931Z,35.90
2018-07-23T07:00:54.642Z,38.57
2018-07-23T07:03:26.175Z,36.50
2018-07-23T07:05:57.798Z,34.60
2018-07-23T07:08:26.982Z,36.60
2018-07-23T07:10:56.399Z,37.73
2018-07-23T07:13:25.553Z,41.73
2018-07-23T07:15:54.650Z,41.87
2018-07-23T07:18:23.793Z,35.97
2018-07-23T07:20:52.999Z,38.73
2018-07-23T07:23:22.144Z,34.50
2018-07-23T07:25:51.049Z,34.23
2018-07-23T07:28:20.098Z,39.13
2018-07-23T07:30:49.309Z,35.63
2018-07-23T07:33:18.506Z,32.10
2018-07-23T07:35:47.978Z,35.80
2018-07-23T07:38:17.239Z,34.40
2018-07-23T07:40:46.332Z,37.23
2018-07-23T07:43:15.206Z,38.40
2018-07-23T07:45:44.247Z,36.13
2018-07-23T07:48:13.436Z,32.73
2018-07-23T07:50:42.573Z,34.93
2018-07-23T07:53:11.749Z,33.07
2018-07-23T07:55:40.890Z,37.20
2018-07-23T07:58:10.065Z,34.07
2018-07-23T08:00:39.854Z,36.70
2018-07-23T08:03:09.582Z,34.67
2018-07-23T08:05:38.724Z,33.23
2018-07-23T08:08:08.085Z,34.83
2018-07-23T08:10:37.255Z,34.27
2018-07-23T08:13:06.509Z,33.47
2018-07-23T08:15:36.167Z,31.33
2018-07-23T08:18:05.444Z,36.70
2018-07-23T08:20:34.337Z,30.10
2018-07-23T08:23:03.585Z,29.87
2018-07-23T08:25:33.739Z,30.12
2018-07-23T08:28:02.982Z,29.37
2018-07-23T08:30:32.175Z,28.87
2018-07-23T08:33:02.223Z,28.35
2018-07-23T08:35:31.378Z,30.43
2018-07-23T08:38:00.578Z,27.30
2018-07-23T08:40:29.837Z,25.60
2018-07-23T08:42:59.086Z,27.32
2018-07-23T08:45:28.324Z,30.62
2018-07-23T08:47:57.590Z,27.03
2018-07-23T08:50:26.861Z,25.57
2018-07-23T08:52:56.122Z,27.83
2018-07-23T08:55:25.388Z,26.13
2018-07-23T08:57:54.631Z,29.83
2018-07-23T09:00:23.800Z,27.87
2018-07-23T09:02:53.009Z,25.60
2018-07-23T09:05:22.228Z,26.73
2018-07-23T09:07:51.478Z,27.40
2018-07-23T09:10:20.690Z,32.17
2018-07-23T09:12:49.931Z,28.00
2018-07-23T09:15:19.124Z,32.87
2018-07-23T09:17:48.365Z,31.13
2018-07-23T09:20:17.572Z,31.13
2018-07-23T09:22:46.782Z,31.33
2018-07-23T09:25:15.946Z,29.37
2018-07-23T09:27:45.125Z,30.90
2018-07-23T09:30:19.460Z,30.90
2018-07-23T09:32:48.626Z,30.37
2018-07-23T09:35:17.829Z,27.47
2018-07-23T09:37:47.166Z,27.73
2018-07-23T09:40:16.031Z,25.50
2018-07-23T09:42:45.686Z,24.63
2018-07-23T09:45:14.909Z,27.97
2018-07-23T09:47:44.062Z,26.20
2018-07-23T09:50:13.256Z,25.83
2018-07-23T09:52:42.838Z,23.93
2018-07-23T09:55:12.385Z,22.93
2018-07-23T09:57:41.708Z,22.13
2018-07-23T10:00:11.143Z,21.07
2018-07-23T10:02:42.275Z,21.40
2018-07-23T10:05:11.466Z,20.47
2018-07-23T10:07:40.718Z,18.17
2018-07-23T10:10:09.963Z,17.53
2018-07-23T10:12:39.174Z,24.00
2018-07-23T10:15:08.366Z,17.83
2018-07-23T10:17:37.578Z,18.57
2018-07-23T10:20:07.017Z,17.77
2018-07-23T10:22:36.237Z,19.23
2018-07-23T10:25:05.568Z,17.53
2018-07-23T10:27:34.807Z,17.47
2018-07-23T10:30:04.970Z,17.37
2018-07-23T10:32:34.505Z,16.87
2018-07-23T10:35:03.952Z,16.23
2018-07-23T10:37:33.029Z,17.13
2018-07-23T10:40:02.234Z,15.73
2018-07-23T10:42:31.435Z,15.00
2018-07-23T10:45:00.676Z,14.53
2018-07-23T10:47:29.907Z,15.90
2018-07-23T10:49:59.109Z,14.83
2018-07-23T10:52:28.327Z,15.60
2018-07-23T10:54:57.578Z,19.77
2018-07-23T10:57:26.865Z,14.93
2018-07-23T10:59:56.087Z,14.50
2018-07-23T11:02:25.354Z,13.33
2018-07-23T11:04:54.562Z,13.80
2018-07-23T11:07:23.820Z,14.37
2018-07-23T11:09:52.978Z,13.60
2018-07-23T11:12:22.220Z,13.63
2018-07-23T11:14:51.475Z,12.43
2018-07-23T11:17:20.384Z,12.90
2018-07-23T11:19:49.632Z,12.97
2018-07-23T11:22:18.838Z,13.43
2018-07-23T11:24:48.074Z,13.97
2018-07-23T11:27:17.250Z,12.83
2018-07-23T11:29:46.438Z,12.43
2018-07-23T11:32:15.664Z,11.87
2018-07-23T11:34:44.884Z,12.30
2018-07-23T11:37:14.181Z,10.77
2018-07-23T11:39:43.484Z,16.70
2018-07-23T11:42:12.686Z,11.53
2018-07-23T11:44:41.935Z,10.27
2018-07-23T11:47:11.380Z,11.27
2018-07-23T11:49:40.530Z,11.43
2018-07-23T11:52:14.362Z,11.63
2018-07-23T11:54:38.614Z,12.27
2018-07-23T11:57:07.716Z,13.30
2018-07-23T11:59:37.039Z,12.53
2018-07-23T12:02:07.092Z,13.47
2018-07-23T12:04:36.516Z,10.90
2018-07-23T12:07:06.309Z,11.40
2018-07-23T12:09:35.517Z,12.37
2018-07-23T12:12:04.732Z,11.07
2018-07-23T12:14:33.966Z,14.60
2018-07-23T12:17:03.265Z,11.90
2018-07-23T12:19:32.386Z,11.63
2018-07-23T12:22:01.558Z,12.63
2018-07-23T12:24:30.498Z,11.43
2018-07-23T12:26:59.650Z,10.80
2018-07-23T12:29:28.893Z,10.97
2018-07-23T12:31:58.140Z,10.07
2018-07-23T12:34:27.367Z,10.60
2018-07-23T12:36:56.630Z,10.30
2018-07-23T12:39:25.853Z,10.50
2018-07-23T12:41:55.059Z,10.13
2018-07-23T12:44:24.247Z,12.60
2018-07-23T12:46:53.432Z,10.73
2018-07-23T12:49:22.633Z,12.90
2018-07-23T12:51:51.850Z,10.53
2018-07-23T12:54:20.720Z,9.25
2018-07-23T12:56:49.837Z,9.73
2018-07-23T12:59:19.078Z,25.43
2018-07-23T13:01:48.317Z,11.65
2018-07-23T13:04:17.536Z,16.17
2018-07-23T13:06:46.859Z,10.38
2018-07-23T13:09:16.311Z,11.83
2018-07-23T13:11:45.471Z,8.85
2018-07-23T13:14:14.719Z,10.98
2018-07-23T13:16:43.948Z,8.95
2018-07-23T13:19:13.354Z,9.25
2018-07-23T13:21:42.596Z,13.32
2018-07-23T13:24:11.819Z,9.80
2018-07-23T13:26:41.053Z,9.43
2018-07-23T13:29:10.281Z,8.57
2018-07-23T13:31:40.271Z,9.28
2018-07-23T13:34:09.513Z,9.70
2018-07-23T13:36:38.701Z,8.90
2018-07-23T13:39:10.026Z,9.70
2018-07-23T13:41:39.224Z,8.78
2018-07-23T13:44:09.430Z,10.53
2018-07-23T13:46:38.952Z,9.83
2018-07-23T13:49:08.133Z,9.68
2018-07-23T13:51:37.352Z,10.72
2018-07-23T13:54:06.591Z,10.50
2018-07-23T13:56:35.835Z,11.15
2018-07-23T13:59:05.059Z,11.70
2018-07-23T14:01:34.292Z,9.93
2018-07-23T14:04:03.438Z,9.65
2018-07-23T14:06:32.673Z,9.05
2018-07-23T14:09:01.869Z,10.95
2018-07-23T14:11:31.068Z,9.25
2018-07-23T14:14:00.286Z,11.43
2018-07-23T14:16:29.454Z,10.55
2018-07-23T14:18:58.630Z,9.58
2018-07-23T14:21:27.837Z,10.20
2018-07-23T14:23:57.021Z,9.93
2018-07-23T14:26:26.251Z,10.55
2018-07-23T14:28:55.449Z,10.13
2018-07-23T14:31:24.653Z,9.43
2018-07-23T14:33:53.838Z,10.45
2018-07-23T14:36:23.085Z,9.65
2018-07-23T14:38:52.434Z,10.45
2018-07-23T14:41:21.633Z,10.58
2018-07-23T14:43:51.452Z,10.13
2018-07-23T14:46:20.554Z,12.05
2018-07-23T14:48:50.053Z,10.50
2018-07-23T14:51:19.191Z,10.58
2018-07-23T14:53:48.142Z,10.80
2018-07-23T14:56:17.174Z,12.53
2018-07-23T14:58:46.358Z,11.35
2018-07-23T15:01:15.522Z,10.58
2018-07-23T15:03:44.705Z,11.30
2018-07-23T15:06:14.035Z,11.97
2018-07-23T15:08:43.206Z,10.63
2018-07-23T15:11:12.426Z,12.35
2018-07-23T15:13:42.335Z,11.03
2018-07-23T15:16:11.446Z,11.15
2018-07-23T15:18:40.614Z,12.78
2018-07-23T15:21:09.832Z,11.28
2018-07-23T15:23:39.028Z,13.40
2018-07-23T15:26:08.225Z,11.22
2018-07-23T15:28:37.405Z,11.63
2018-07-23T15:31:06.645Z,16.57
2018-07-23T15:33:35.840Z,11.35
2018-07-23T15:36:06.072Z,11.70
2018-07-23T15:38:35.257Z,12.63
2018-07-23T15:41:05.875Z,11.17
2018-07-23T15:43:35.045Z,11.53
2018-07-23T15:46:04.304Z,12.28
2018-07-23T15:48:33.518Z,10.15
2018-07-23T15:51:03.309Z,10.32
2018-07-23T15:53:32.670Z,10.95
2018-07-23T15:56:03.171Z,10.13
2018-07-23T15:58:32.417Z,11.18
2018-07-23T16:01:01.657Z,10.63
2018-07-23T16:03:30.866Z,9.88
2018-07-23T16:06:00.049Z,9.63
2018-07-23T16:08:29.247Z,10.10
2018-07-23T16:10:58.418Z,11.50
2018-07-23T16:13:27.578Z,9.73
2018-07-23T16:15:57.493Z,9.93
2018-07-23T16:18:26.658Z,9.73
2018-07-23T16:20:55.842Z,9.68
2018-07-23T16:23:25.094Z,9.05
2018-07-23T16:25:54.531Z,9.78
2018-07-23T16:28:23.898Z,9.40
2018-07-23T16:30:53.360Z,9.65
2018-07-23T16:33:22.529Z,9.90
2018-07-23T16:35:51.713Z,9.55
2018-07-23T16:38:20.954Z,9.20
2018-07-23T16:40:50.213Z,9.28
2018-07-23T16:43:19.742Z,10.23
2018-07-23T16:45:48.925Z,8.73
2018-07-23T16:48:18.082Z,9.88
2018-07-23T16:50:47.400Z,11.20
2018-07-23T16:53:16.562Z,9.45
2018-07-23T16:55:45.886Z,8.98
2018-07-23T16:58:15.116Z,8.73
2018-07-23T17:00:44.442Z,9.05
2018-07-23T17:03:13.785Z,8.83
2018-07-23T17:05:47.592Z,9.33
2018-07-23T17:08:17.329Z,9.60
2018-07-23T17:10:46.622Z,11.97
2018-07-23T17:13:15.783Z,9.73
2018-07-23T17:15:45.061Z,8.88
2018-07-23T17:18:14.284Z,9.40
2018-07-23T17:20:44.165Z,9.23
2018-07-23T17:23:13.548Z,10.08
2018-07-23T17:25:42.732Z,9.80
2018-07-23T17:28:12.033Z,11.10
2018-07-23T17:30:42.257Z,8.78
2018-07-23T17:33:11.413Z,8.65
2018-07-23T17:35:40.728Z,9.23
2018-07-23T17:38:09.835Z,9.23
2018-07-23T17:40:39.087Z,9.78
2018-07-23T17:43:08.259Z,9.28
2018-07-23T17:45:37.542Z,10.58
2018-07-23T17:48:06.786Z,9.58
2018-07-23T17:50:35.990Z,8.77
2018-07-23T17:53:05.586Z,10.78
2018-07-23T17:55:34.860Z,9.13
2018-07-23T17:58:04.116Z,9.00
2018-07-23T18:00:33.344Z,11.27
2018-07-23T18:03:02.538Z,10.20
2018-07-23T18:05:31.756Z,9.00
2018-07-23T18:08:01.013Z,12.05
2018-07-23T18:10:30.197Z,9.80
2018-07-23T18:12:59.608Z,9.90
2018-07-23T18:15:28.998Z,10.50
2018-07-23T18:17:58.657Z,9.90
2018-07-23T18:20:27.930Z,10.73
2018-07-23T18:22:58.472Z,10.03
2018-07-23T18:25:27.665Z,9.83
2018-07-23T18:27:56.859Z,9.53
2018-07-23T18:30:26.189Z,10.67
2018-07-23T18:33:01.819Z,9.85
2018-07-23T18:35:31.029Z,9.27
2018-07-23T18:38:00.663Z,9.65
2018-07-23T18:40:29.878Z,11.20
2018-07-23T18:42:58.898Z,11.28
2018-07-23T18:45:27.966Z,9.17
2018-07-23T18:47:57.209Z,9.78
2018-07-23T18:50:26.379Z,9.43
2018-07-23T18:52:55.651Z,10.40
2018-07-23T18:55:25.597Z,12.47
2018-07-23T18:57:54.875Z,10.90
2018-07-23T19:00:24.071Z,10.17
2018-07-23T19:02:53.289Z,13.40
2018-07-23T19:05:22.412Z,11.57
2018-07-23T19:07:51.602Z,10.30
2018-07-23T19:10:20.859Z,10.63
2018-07-23T19:12:50.022Z,9.50
2018-07-23T19:15:21.752Z,10.05
2018-07-23T19:17:50.925Z,9.60
2018-07-23T19:20:20.126Z,9.63
2018-07-23T19:22:49.214Z,8.40
2018-07-23T19:25:18.322Z,9.38
2018-07-23T19:27:47.528Z,11.35
2018-07-23T19:30:16.813Z,8.98
2018-07-23T19:32:46.694Z,9.60
2018-07-23T19:35:15.993Z,9.83
2018-07-23T19:37:45.236Z,9.73
2018-07-23T19:40:14.401Z,11.08
2018-07-23T19:42:43.613Z,10.47
2018-07-23T19:45:12.856Z,10.93
2018-07-23T19:47:42.095Z,14.13
2018-07-23T19:50:11.195Z,13.23
2018-07-23T19:52:40.426Z,11.67
2018-07-23T19:55:09.653Z,12.95
2018-07-23T19:57:38.792Z,10.60
2018-07-23T20:00:08.855Z,10.70
2018-07-23T20:02:37.941Z,11.27
2018-07-23T20:05:07.165Z,10.53
2018-07-23T20:07:36.333Z,10.85
2018-07-23T20:10:05.979Z,11.57
2018-07-23T20:12:36.132Z,11.68
2018-07-23T20:15:06.248Z,11.20
2018-07-23T20:17:36.072Z,10.82
2018-07-23T20:20:06.170Z,13.90
2018-07-23T20:22:35.334Z,11.22
2018-07-23T20:25:04.605Z,12.47
2018-07-23T20:27:33.929Z,11.90
2018-07-23T20:30:03.097Z,10.30
2018-07-23T20:32:32.399Z,11.13
2018-07-23T20:35:01.658Z,13.10
2018-07-23T20:37:30.970Z,10.83
2018-07-23T20:39:59.976Z,11.30
2018-07-23T20:42:30.604Z,10.75
2018-07-23T20:44:59.820Z,10.57
2018-07-23T20:47:29.085Z,10.80
2018-07-23T20:49:58.329Z,10.88
2018-07-23T20:52:27.502Z,10.88
2018-07-23T20:54:56.733Z,9.90
2018-07-23T20:57:25.931Z,11.10
2018-07-23T20:59:56.170Z,11.33
2018-07-23T21:02:25.758Z,13.85
2018-07-23T21:04:54.990Z,18.50
2018-07-23T21:07:24.271Z,10.43
2018-07-23T21:09:53.440Z,10.87
2018-07-23T21:12:22.587Z,10.57
2018-07-23T21:14:51.814Z,14.00
2018-07-23T21:17:20.918Z,12.70
2018-07-23T21:19:50.172Z,13.03
2018-07-23T21:22:19.498Z,11.03
2018-07-23T21:24:48.670Z,13.87
2018-07-23T21:27:18.550Z,12.97
2018-07-23T21:29:48.022Z,10.90
2018-07-23T21:32:17.222Z,11.47
2018-07-23T21:34:46.435Z,12.67
2018-07-23T21:37:16.623Z,14.43
2018-07-23T21:39:45.846Z,13.27
2018-07-23T21:42:15.104Z,16.30
2018-07-23T21:44:44.303Z,14.50
2018-07-23T21:47:13.579Z,11.23
2018-07-23T21:49:42.778Z,11.65
2018-07-23T21:52:12.105Z,10.03
2018-07-23T21:54:41.321Z,10.90
2018-07-23T21:57:10.581Z,11.23
2018-07-23T21:59:40.254Z,10.97
2018-07-23T22:02:09.169Z,11.93
2018-07-23T22:04:39.075Z,12.00
2018-07-23T22:07:08.311Z,10.80
2018-07-23T22:09:37.629Z,11.00
2018-07-23T22:12:06.886Z,11.87
2018-07-23T22:14:36.045Z,14.57
2018-07-23T22:17:05.306Z,10.87
2018-07-23T22:19:34.474Z,10.63
2018-07-23T22:22:03.697Z,13.37
2018-07-23T22:24:33.120Z,12.43
2018-07-23T22:27:02.263Z,14.60
2018-07-23T22:29:31.398Z,11.70
2018-07-23T22:32:00.575Z,15.63
2018-07-23T22:34:29.729Z,12.40
2018-07-23T22:36:58.878Z,12.63
2018-07-23T22:39:28.050Z,12.80
2018-07-23T22:41:57.192Z,13.40
2018-07-23T22:44:26.345Z,12.37
2018-07-23T22:46:55.596Z,17.73
2018-07-23T22:49:24.705Z,14.93
2018-07-23T22:51:53.855Z,12.90
2018-07-23T22:54:22.986Z,12.37
2018-07-23T22:56:52.171Z,12.47
2018-07-23T22:59:21.425Z,12.53
2018-07-23T23:01:50.533Z,13.03
2018-07-23T23:04:19.828Z,12.77
2018-07-23T23:06:49.184Z,12.17
2018-07-23T23:09:18.499Z,12.60
2018-07-23T23:11:47.777Z,11.37
2018-07-23T23:14:17.058Z,14.23
2018-07-23T23:16:46.289Z,11.60
2018-07-23T23:19:15.468Z,13.13
2018-07-23T23:21:44.628Z,12.33
2018-07-23T23:24:13.913Z,12.70
2018-07-23T23:26:43.086Z,12.20
2018-07-23T23:29:12.183Z,12.40
2018-07-23T23:31:41.361Z,12.27
2018-07-23T23:34:10.565Z,12.33
2018-07-23T23:36:39.697Z,12.00
2018-07-23T23:39:09.508Z,12.17
2018-07-23T23:41:38.605Z,13.27
2018-07-23T23:44:07.837Z,13.00
2018-07-23T23:46:37.025Z,11.70
2018-07-23T23:49:06.337Z,13.00
2018-07-23T23:51:35.460Z,12.50
2018-07-23T23:54:04.633Z,12.93
2018-07-23T23:56:33.786Z,12.33
2018-07-23T23:59:02.950Z,12.87
